Time;durP1;ratioP1;P1;durP2;ratioP2;P2;SDS_P1;SDS_P2;PMS_P1;PMS_P2;Temp;Humidity;BMP_temperature;BMP_pressure;BME280_temperature;BME280_humidity;BME280_pressure;Samples;Min_cycle;Max_cycle;Signal;HPM_P1;HPM_P2
2022/05/13 00:00:28;;;;;;;4.53;1.42;;;11.80;99.90;;;;;;5088892;28;20548;-70
2022/05/13 00:02:54;;;;;;;5.60;1.52;;;11.80;99.90;;;;;;5093098;28;20032;-70
2022/05/13 00:05:20;;;;;;;4.68;1.15;;;11.80;99.90;;;;;;5104129;28;20502;-69
2022/05/13 00:07:46;;;;;;;10.27;1.73;;;11.80;99.90;;;;;;5091782;28;20110;-69
2022/05/13 00:10:11;;;;;;;5.75;1.10;;;11.80;99.90;;;;;;5092247;28;20043;-70
2022/05/13 00:12:40;;;;;;;5.05;2.08;;;11.80;99.90;;;;;;5092904;28;20528;-70
2022/05/13 00:15:14;;;;;;;5.72;1.02;;;11.90;99.90;;;;;;5093110;28;20553;-69
2022/05/13 00:17:40;;;;;;;17.08;1.20;;;11.90;99.90;;;;;;5087626;28;20051;-69
2022/05/13 00:20:07;;;;;;;6.65;0.95;;;11.90;99.90;;;;;;5091006;28;20028;-69
2022/05/13 00:22:33;;;;;;;9.48;1.38;;;11.80;99.90;;;;;;5090256;28;20036;-68
2022/05/13 00:24:58;;;;;;;7.85;1.52;;;11.80;99.90;;;;;;5092277;28;20434;-69
2022/05/13 00:27:24;;;;;;;7.57;0.77;;;11.80;99.90;;;;;;5091167;28;20467;-70
2022/05/13 00:29:50;;;;;;;3.40;0.60;;;11.70;99.90;;;;;;5092630;28;20410;-68
2022/05/13 00:32:17;;;;;;;6.35;1.10;;;11.70;99.90;;;;;;5090606;28;20032;-70
2022/05/13 00:34:43;;;;;;;7.18;1.83;;;11.60;99.90;;;;;;5089235;28;20438;-69
2022/05/13 00:37:09;;;;;;;3.05;0.90;;;11.60;99.90;;;;;;5091340;28;20082;-70
2022/05/13 00:39:35;;;;;;;3.30;0.63;;;11.60;99.90;;;;;;5092219;28;20028;-69
2022/05/13 00:42:10;;;;;;;3.53;0.88;;;11.60;99.90;;;;;;5092261;28;20042;-71
2022/05/13 00:44:36;;;;;;;4.72;0.75;;;11.60;99.90;;;;;;5092006;28;20020;-69
2022/05/13 00:47:03;;;;;;;4.03;1.08;;;11.60;99.90;;;;;;5092214;28;20040;-69
2022/05/13 00:49:31;;;;;;;2.50;0.80;;;11.50;99.90;;;;;;5085025;28;20024;-69
2022/05/13 00:51:59;;;;;;;3.72;1.25;;;11.50;99.90;;;;;;5092234;28;20031;-69
2022/05/13 00:54:25;;;;;;;3.13;0.90;;;11.40;99.90;;;;;;5080032;28;20391;-70
2022/05/13 00:56:51;;;;;;;2.35;1.13;;;11.40;99.90;;;;;;5091147;28;20028;-69
2022/05/13 00:59:20;;;;;;;2.85;0.73;;;11.30;99.90;;;;;;5091980;28;20028;-68
2022/05/13 01:01:48;;;;;;;1.88;0.70;;;11.30;99.90;;;;;;5092256;28;20081;-69
2022/05/13 01:04:16;;;;;;;6.38;0.82;;;11.30;99.90;;;;;;5091765;28;20051;-69
2022/05/13 01:06:52;;;;;;;6.25;0.88;;;11.30;99.90;;;;;;5091699;28;20032;-69
2022/05/13 01:09:19;;;;;;;2.58;0.73;;;11.20;99.90;;;;;;5091399;28;20075;-69
2022/05/13 01:11:47;;;;;;;2.72;0.70;;;11.20;99.90;;;;;;5091743;28;20032;-70
2022/05/13 01:14:22;;;;;;;2.17;0.80;;;11.20;99.90;;;;;;5092232;28;20042;-70
2022/05/13 01:19:32;;;;;;;0.98;0.35;;;11.10;99.90;;;;;;5091766;28;20117;-69
2022/05/13 01:22:13;;;;;;;1.70;0.55;;;11.10;99.90;;;;;;5090879;28;20495;-69
2022/05/13 01:24:38;;;;;;;1.88;0.80;;;11.10;99.90;;;;;;5091632;28;20384;-68
2022/05/13 01:27:04;;;;;;;1.30;0.50;;;11.20;99.90;;;;;;5091358;28;20024;-70
2022/05/13 01:29:30;;;;;;;1.20;0.60;;;11.20;99.90;;;;;;5091470;28;20028;-70
2022/05/13 01:31:55;;;;;;;2.83;0.55;;;11.10;99.90;;;;;;5091524;28;20467;-69
2022/05/13 01:34:21;;;;;;;1.63;0.80;;;11.10;99.90;;;;;;5091492;28;20028;-69
2022/05/13 01:36:47;;;;;;;4.22;0.70;;;11.10;99.90;;;;;;5091789;28;20235;-69
2022/05/13 01:39:12;;;;;;;0.98;0.50;;;11.10;99.90;;;;;;5091637;28;20357;-69
2022/05/13 01:41:38;;;;;;;5.20;1.17;;;11.10;99.90;;;;;;5090599;28;20031;-68
2022/05/13 01:44:04;;;;;;;2.45;0.70;;;11.10;99.90;;;;;;5091053;28;20032;-70
2022/05/13 01:46:30;;;;;;;3.05;0.70;;;11.20;99.90;;;;;;5089582;28;20024;-70
2022/05/13 01:48:56;;;;;;;2.72;0.88;;;11.20;99.90;;;;;;5091312;28;20032;-70
2022/05/13 01:51:22;;;;;;;1.70;0.50;;;11.30;99.90;;;;;;5091691;28;20047;-70
2022/05/13 01:53:48;;;;;;;5.50;1.33;;;11.30;99.90;;;;;;5091909;28;20063;-67
2022/05/13 01:56:14;;;;;;;5.57;1.50;;;11.30;99.90;;;;;;5095502;28;20035;-68
2022/05/13 01:58:40;;;;;;;1.88;0.82;;;11.30;99.90;;;;;;5095658;28;20081;-69
2022/05/13 02:01:07;;;;;;;4.15;1.10;;;11.30;99.90;;;;;;5094779;28;20023;-68
2022/05/13 02:03:45;;;;;;;5.63;2.60;;;11.30;99.90;;;;;;5095649;28;20047;-69
2022/05/13 02:06:11;;;;;;;;;;;11.30;99.90;;;;;;5091321;28;20043;-71
2022/05/13 02:08:37;;;;;;;5.60;0.63;;;11.30;99.90;;;;;;5088866;28;20367;-69
2022/05/13 02:11:02;;;;;;;2.47;0.70;;;11.20;99.90;;;;;;5094867;28;20036;-69
2022/05/13 02:13:28;;;;;;;4.38;0.60;;;11.30;99.90;;;;;;5095269;28;20028;-69
2022/05/13 02:15:54;;;;;;;2.63;0.50;;;11.30;99.90;;;;;;5095112;28;20047;-68
2022/05/13 02:18:20;;;;;;;1.30;0.40;;;11.30;99.90;;;;;;5095299;28;20036;-68
2022/05/13 02:20:47;;;;;;;5.13;0.82;;;11.30;99.90;;;;;;5095044;28;20036;-67
2022/05/13 02:23:13;;;;;;;3.22;0.65;;;11.30;99.90;;;;;;5094977;28;20032;-68
2022/05/13 02:25:39;;;;;;;7.45;0.82;;;11.30;99.90;;;;;;5095302;28;20360;-69
2022/05/13 02:28:06;;;;;;;5.22;0.70;;;11.30;99.90;;;;;;5094728;28;20031;-68
2022/05/13 02:30:32;;;;;;;4.15;0.68;;;11.30;99.90;;;;;;5093375;28;20020;-69
2022/05/13 02:32:58;;;;;;;2.17;0.47;;;11.30;99.90;;;;;;5094868;28;20078;-69
2022/05/13 02:35:25;;;;;;;2.40;1.40;;;11.30;99.90;;;;;;5094991;28;20493;-72
2022/05/13 02:37:50;;;;;;;2.72;0.63;;;11.30;99.90;;;;;;5094825;28;20099;-69
2022/05/13 02:40:18;;;;;;;3.45;0.65;;;11.30;99.90;;;;;;5086752;28;20111;-68
2022/05/13 02:42:44;;;;;;;2.45;0.63;;;11.20;99.90;;;;;;5094501;28;20399;-68
2022/05/13 02:45:10;;;;;;;3.60;0.80;;;11.10;99.90;;;;;;5094390;28;20031;-67
2022/05/13 02:47:39;;;;;;;0.77;0.65;;;11.00;99.90;;;;;;5091497;28;20016;-68
2022/05/13 02:50:19;;;;;;;3.95;0.50;;;11.10;99.90;;;;;;5094203;28;20038;-68
2022/05/13 02:52:46;;;;;;;1.35;0.82;;;11.00;99.90;;;;;;5092798;28;20038;-68
2022/05/13 02:55:12;;;;;;;2.20;0.70;;;11.00;99.90;;;;;;5093505;28;20024;-68
2022/05/13 02:57:38;;;;;;;2.25;0.93;;;11.00;99.90;;;;;;5093623;28;20032;-70
2022/05/13 03:00:05;;;;;;;1.90;0.57;;;11.00;99.90;;;;;;5093920;28;20036;-69
2022/05/13 03:02:31;;;;;;;1.70;0.50;;;10.90;99.90;;;;;;5093556;28;20546;-68
2022/05/13 03:04:57;;;;;;;0.60;0.60;;;10.90;99.90;;;;;;5091188;28;20054;-68
2022/05/13 03:07:23;;;;;;;1.98;1.00;;;10.90;99.90;;;;;;5088204;28;20024;-68
2022/05/13 03:09:49;;;;;;;1.98;0.70;;;10.90;99.90;;;;;;5093266;28;20036;-66
2022/05/13 03:12:15;;;;;;;2.92;0.47;;;10.90;99.90;;;;;;5092450;28;20032;-68
2022/05/13 03:14:41;;;;;;;4.43;0.60;;;10.90;99.90;;;;;;5093308;28;20028;-68
2022/05/13 03:17:07;;;;;;;1.20;0.70;;;10.80;99.90;;;;;;5091792;28;20024;-68
2022/05/13 03:19:35;;;;;;;2.97;0.73;;;10.80;99.90;;;;;;5093325;28;20028;-68
2022/05/13 03:22:01;;;;;;;3.47;0.70;;;10.80;99.90;;;;;;5092923;28;20133;-68
2022/05/13 03:24:26;;;;;;;1.00;0.57;;;10.80;99.90;;;;;;5091557;28;20514;-67
2022/05/13 03:26:52;;;;;;;4.47;1.30;;;10.80;99.90;;;;;;5093282;28;20031;-66
2022/05/13 03:29:19;;;;;;;2.13;1.08;;;10.80;99.90;;;;;;5092822;28;20055;-69
2022/05/13 03:31:46;;;;;;;2.42;0.57;;;10.80;99.90;;;;;;5092894;28;20107;-68
2022/05/13 03:34:11;;;;;;;5.55;0.70;;;10.80;99.90;;;;;;5092798;28;20040;-68
2022/05/13 03:36:37;;;;;;;4.88;0.82;;;10.80;99.90;;;;;;5093083;28;20035;-68
2022/05/13 03:39:04;;;;;;;2.85;0.70;;;10.80;99.90;;;;;;5092838;28;20064;-68
2022/05/13 03:41:30;;;;;;;2.00;0.38;;;10.80;99.90;;;;;;5092812;28;20032;-68
2022/05/13 03:43:56;;;;;;;0.88;0.47;;;10.80;99.90;;;;;;5093251;28;20361;-68
2022/05/13 03:46:21;;;;;;;5.80;0.73;;;10.80;99.90;;;;;;5092520;28;20030;-68
2022/05/13 03:48:47;;;;;;;2.00;0.50;;;10.70;99.90;;;;;;5092469;28;20028;-68
2022/05/13 03:51:13;;;;;;;2.05;0.80;;;10.80;99.90;;;;;;5089734;28;20084;-67
2022/05/13 03:53:39;;;;;;;4.80;1.10;;;10.80;99.90;;;;;;5091072;28;20024;-68
2022/05/13 03:56:05;;;;;;;3.22;1.17;;;10.70;99.90;;;;;;5091901;28;20021;-68
2022/05/13 03:58:31;;;;;;;1.73;0.75;;;10.70;99.90;;;;;;5091232;28;20032;-68
2022/05/13 04:00:57;;;;;;;4.85;0.70;;;10.80;99.90;;;;;;5092380;28;20475;-67
2022/05/13 04:03:24;;;;;;;4.72;0.90;;;10.80;99.90;;;;;;5092060;28;20517;-68
2022/05/13 04:11:18;;;;;;;1.85;0.57;;;10.80;99.90;;;;;;5092592;28;20077;-68
2022/05/13 04:16:28;;;;;;;2.92;0.70;;;10.80;99.90;;;;;;5092246;28;20073;-68
2022/05/13 04:18:54;;;;;;;4.05;1.00;;;10.80;99.90;;;;;;5092400;28;20471;-67
2022/05/13 04:21:25;;;;;;;1.40;0.75;;;10.90;99.90;;;;;;5091422;28;20396;-69
2022/05/13 04:23:54;;;;;;;0.90;0.60;;;10.80;99.90;;;;;;5092162;28;20093;-68
2022/05/13 04:26:20;;;;;;;2.75;0.82;;;10.80;99.90;;;;;;5091887;28;20024;-67
2022/05/13 04:28:49;;;;;;;3.95;0.77;;;10.80;99.90;;;;;;5091761;28;20039;-67
2022/05/13 04:31:17;;;;;;;3.80;0.82;;;10.90;99.90;;;;;;5092151;28;20016;-67
2022/05/13 04:33:43;;;;;;;1.08;0.73;;;10.80;99.90;;;;;;5090710;28;20376;-67
2022/05/13 04:36:10;;;;;;;2.80;0.93;;;10.90;99.90;;;;;;5088966;28;20046;-69
2022/05/13 04:38:36;;;;;;;2.00;0.80;;;10.80;99.90;;;;;;5090000;28;20108;-69
2022/05/13 04:43:59;;;;;;;3.72;0.55;;;10.90;99.90;;;;;;5071548;28;20033;-68
2022/05/13 04:46:25;;;;;;;3.42;1.00;;;10.90;99.90;;;;;;5087654;28;20027;-69
2022/05/13 04:48:53;;;;;;;2.38;0.68;;;10.90;99.90;;;;;;5091411;28;20047;-67
2022/05/13 04:51:20;;;;;;;2.42;0.70;;;11.00;99.90;;;;;;5089405;28;20270;-69
2022/05/13 04:53:48;;;;;;;2.83;0.50;;;11.00;99.90;;;;;;5090797;28;20467;-66
2022/05/13 04:56:13;;;;;;;;;;;11.00;99.90;;;;;;5091925;28;20043;-68
2022/05/13 04:58:41;;;;;;;3.72;0.60;;;11.10;99.90;;;;;;5091212;28;20288;-68
2022/05/13 05:01:08;;;;;;;3.60;0.85;;;11.10;99.90;;;;;;5091086;28;20114;-68
2022/05/13 05:03:40;;;;;;;1.05;0.77;;;11.10;99.90;;;;;;5091052;28;20055;-68
2022/05/13 05:06:05;;;;;;;0.68;0.63;;;11.20;99.90;;;;;;5087967;28;20103;-67
2022/05/13 05:08:31;;;;;;;1.83;0.90;;;11.20;99.90;;;;;;5090543;28;20154;-67
2022/05/13 05:10:57;;;;;;;4.47;1.00;;;11.20;99.90;;;;;;5091356;28;20020;-67
2022/05/13 05:13:28;;;;;;;2.08;0.70;;;11.30;99.90;;;;;;5090683;28;20024;-67
2022/05/13 05:15:54;;;;;;;1.95;0.57;;;11.30;99.90;;;;;;5091016;28;20055;-67
2022/05/13 05:18:20;;;;;;;1.40;0.73;;;11.30;99.90;;;;;;5090792;28;20023;-68
2022/05/13 05:20:47;;;;;;;2.55;0.85;;;11.40;99.90;;;;;;5090671;28;20111;-67
2022/05/13 05:23:18;;;;;;;3.83;1.00;;;11.40;99.90;;;;;;5091018;28;20511;-66
2022/05/13 05:25:45;;;;;;;2.70;0.75;;;11.40;99.90;;;;;;5110208;28;20028;-66
2022/05/13 05:28:11;;;;;;;2.67;0.80;;;11.50;99.90;;;;;;5090620;28;20526;-68
2022/05/13 05:30:39;;;;;;;1.90;0.93;;;11.50;99.90;;;;;;5094060;28;20387;-68
2022/05/13 05:33:05;;;;;;;2.65;0.88;;;11.50;99.90;;;;;;5088706;28;20376;-67
2022/05/13 05:35:31;;;;;;;1.75;0.63;;;11.50;99.90;;;;;;5087435;28;20032;-67
2022/05/13 05:37:57;;;;;;;2.17;0.73;;;11.60;99.90;;;;;;5083305;28;20081;-67
2022/05/13 05:40:23;;;;;;;2.20;0.80;;;11.60;99.90;;;;;;5088459;28;20418;-67
2022/05/13 05:42:49;;;;;;;3.80;0.88;;;11.70;99.90;;;;;;5091665;28;20115;-68
2022/05/13 05:45:18;;;;;;;4.40;1.10;;;11.70;99.90;;;;;;5087047;28;20081;-67
2022/05/13 05:47:43;;;;;;;4.75;0.70;;;11.70;99.90;;;;;;5088333;28;20111;-66
2022/05/13 05:50:14;;;;;;;1.98;0.90;;;11.70;99.90;;;;;;5094753;28;20465;-70
2022/05/13 05:52:40;;;;;;;4.50;1.65;;;11.80;99.90;;;;;;5087713;28;20404;-66
2022/05/13 05:58:05;;;;;;;0.75;0.68;;;11.90;99.90;;;;;;5093345;28;20105;-66
2022/05/13 06:00:33;;;;;;;6.53;1.30;;;12.00;99.90;;;;;;5093406;28;20437;-68
2022/05/13 06:02:59;;;;;;;1.90;0.95;;;12.10;99.90;;;;;;5086122;28;20040;-67
2022/05/13 06:05:26;;;;;;;0.90;0.70;;;12.10;99.90;;;;;;5089684;28;20379;-66
2022/05/13 06:07:55;;;;;;;7.82;0.93;;;12.20;99.90;;;;;;5111360;28;20398;-67
2022/05/13 06:10:21;;;;;;;8.27;1.45;;;12.20;99.90;;;;;;5103898;28;20036;-68
2022/05/13 06:12:47;;;;;;;5.15;1.00;;;12.30;99.90;;;;;;5089501;28;20033;-68
2022/05/13 06:15:13;;;;;;;6.30;0.85;;;12.40;99.90;;;;;;5091924;28;20031;-67
2022/05/13 06:17:50;;;;;;;4.03;1.00;;;12.50;99.90;;;;;;5090057;28;20036;-66
2022/05/13 06:20:19;;;;;;;4.93;0.95;;;12.50;99.90;;;;;;5091400;28;20099;-72
2022/05/13 06:22:45;;;;;;;2.65;0.68;;;12.60;99.90;;;;;;5088350;28;20041;-68
2022/05/13 06:25:13;;;;;;;3.25;0.70;;;12.70;99.90;;;;;;5090566;28;20492;-68
2022/05/13 06:27:39;;;;;;;6.75;0.90;;;12.70;99.90;;;;;;5089452;28;20428;-68
2022/05/13 06:30:07;;;;;;;2.97;1.13;;;12.70;99.90;;;;;;5078697;28;20055;-66
2022/05/13 06:32:33;;;;;;;2.88;0.90;;;12.80;99.90;;;;;;5076004;28;20056;-66
2022/05/13 06:34:58;;;;;;;2.10;0.70;;;12.80;99.90;;;;;;5070953;28;20048;-66
2022/05/13 06:37:24;;;;;;;1.95;0.60;;;12.80;99.90;;;;;;5082315;28;20130;-69
2022/05/13 06:39:50;;;;;;;5.57;1.30;;;12.90;99.90;;;;;;5090181;28;20024;-66
2022/05/13 06:42:16;;;;;;;3.78;0.80;;;13.00;99.90;;;;;;5091752;28;20065;-67
2022/05/13 06:44:42;;;;;;;6.03;1.55;;;13.10;99.90;;;;;;5094823;28;20472;-67
2022/05/13 06:47:09;;;;;;;2.85;0.85;;;13.10;99.90;;;;;;5089814;28;20024;-68
2022/05/13 06:49:35;;;;;;;3.78;1.00;;;13.30;99.50;;;;;;5098390;28;20035;-67
2022/05/13 06:52:02;;;;;;;3.80;1.08;;;13.40;99.50;;;;;;5092833;28;20559;-66
2022/05/13 06:54:29;;;;;;;4.00;0.88;;;13.40;99.00;;;;;;5104874;28;20035;-71
2022/05/13 06:56:54;;;;;;;2.80;0.98;;;13.40;98.90;;;;;;5093093;28;20039;-67
2022/05/13 06:59:21;;;;;;;4.13;0.60;;;13.50;99.10;;;;;;5093004;28;20020;-71
2022/05/13 07:01:47;;;;;;;5.63;0.90;;;13.60;98.40;;;;;;5093238;28;20055;-67
2022/05/13 07:04:13;;;;;;;2.88;0.68;;;13.60;99.00;;;;;;5101875;28;20035;-69
2022/05/13 07:06:39;;;;;;;2.85;1.08;;;13.60;98.80;;;;;;5090764;28;20016;-66
2022/05/13 07:09:05;;;;;;;4.32;0.88;;;13.60;98.40;;;;;;5100512;28;20031;-68
2022/05/13 07:11:31;;;;;;;1.70;0.77;;;13.70;98.70;;;;;;5092660;28;20511;-66
2022/05/13 07:13:57;;;;;;;2.25;0.80;;;13.70;98.60;;;;;;5091079;28;20017;-67
2022/05/13 07:16:23;;;;;;;5.07;1.23;;;13.80;98.60;;;;;;5080649;28;20039;-68
2022/05/13 07:18:49;;;;;;;2.92;1.52;;;13.80;98.00;;;;;;5093991;28;20490;-69
2022/05/13 07:21:15;;;;;;;1.85;1.08;;;14.00;98.40;;;;;;5092976;28;20517;-68
2022/05/13 07:23:41;;;;;;;4.90;1.35;;;14.20;98.10;;;;;;5096997;28;20104;-71
2022/05/13 07:26:07;;;;;;;6.82;1.10;;;14.20;98.10;;;;;;5114209;28;20028;-69
2022/05/13 07:28:34;;;;;;;4.47;2.00;;;14.20;97.60;;;;;;5103884;28;20024;-68
2022/05/13 07:31:03;;;;;;;3.00;1.30;;;14.20;97.50;;;;;;5093200;28;20024;-68
2022/05/13 07:33:30;;;;;;;4.10;0.90;;;14.30;98.10;;;;;;5091885;28;20369;-70
2022/05/13 07:35:56;;;;;;;7.05;1.10;;;14.40;96.70;;;;;;5077484;28;20488;-68
2022/05/13 07:38:22;;;;;;;5.18;1.30;;;14.30;97.20;;;;;;5080358;28;20077;-68
2022/05/13 07:43:32;;;;;;;3.35;1.15;;;14.40;97.80;;;;;;5092577;28;20406;-69
2022/05/13 07:45:58;;;;;;;6.28;1.20;;;14.50;97.50;;;;;;5084210;28;20025;-68
2022/05/13 07:48:24;;;;;;;5.05;1.30;;;14.60;97.60;;;;;;5076098;28;20358;-68
2022/05/13 07:50:52;;;;;;;4.40;0.90;;;14.70;98.00;;;;;;5076864;28;20043;-68
2022/05/13 07:53:18;;;;;;;4.40;1.45;;;14.60;96.60;;;;;;5088325;28;20035;-67
2022/05/13 07:55:43;;;;;;;4.93;1.55;;;14.80;97.60;;;;;;5090192;28;20028;-68
2022/05/13 07:58:09;;;;;;;5.05;1.10;;;15.00;97.40;;;;;;5105925;28;20029;-69
2022/05/13 08:00:36;;;;;;;2.40;1.10;;;15.10;96.70;;;;;;5083027;28;20024;-68
2022/05/13 08:03:13;;;;;;;7.32;1.17;;;15.20;97.50;;;;;;5090479;28;20506;-68
2022/05/13 08:05:49;;;;;;;2.35;1.08;;;15.10;96.80;;;;;;5074294;28;20054;-68
2022/05/13 08:08:26;;;;;;;8.55;1.88;;;15.00;97.30;;;;;;5105534;27;20504;-67
2022/05/13 08:10:54;;;;;;;6.10;1.00;;;14.60;97.60;;;;;;5084599;28;20057;-66
2022/05/13 08:13:22;;;;;;;4.68;1.10;;;14.60;97.90;;;;;;5105390;28;20028;-65
2022/05/13 08:15:48;;;;;;;3.72;0.90;;;14.60;97.70;;;;;;5073353;28;20239;-69
2022/05/13 08:18:16;;;;;;;1.92;1.10;;;14.80;98.10;;;;;;5075617;28;20608;-70
2022/05/13 08:20:43;;;;;;;7.82;1.20;;;15.10;97.60;;;;;;5082482;28;20032;-69
2022/05/13 08:23:09;;;;;;;6.57;1.40;;;15.00;96.50;;;;;;5078716;28;20051;-69
2022/05/13 08:25:34;;;;;;;6.13;1.27;;;14.80;96.80;;;;;;5092742;28;20032;-69
2022/05/13 08:28:00;;;;;;;6.50;1.08;;;14.80;97.10;;;;;;5082654;28;20029;-68
2022/05/13 08:30:26;;;;;;;1.40;0.77;;;14.80;97.90;;;;;;5084576;28;20419;-68
2022/05/13 08:32:52;;;;;;;2.95;1.33;;;15.00;97.30;;;;;;5075916;28;20064;-69
2022/05/13 08:35:19;;;;;;;7.28;1.20;;;15.00;97.50;;;;;;5078659;28;20105;-68
2022/05/13 08:37:48;;;;;;;5.35;0.80;;;15.10;97.20;;;;;;5092906;28;20028;-68
2022/05/13 08:40:31;;;;;;;3.55;1.10;;;15.10;96.60;;;;;;5086146;28;20541;-71
2022/05/13 08:42:59;;;;;;;3.92;1.15;;;15.20;96.80;;;;;;5081401;28;20039;-70
2022/05/13 08:45:25;;;;;;;5.47;1.02;;;15.50;97.00;;;;;;5073737;28;20016;-69
2022/05/13 08:47:55;;;;;;;4.32;1.10;;;15.80;96.90;;;;;;5082929;28;20027;-67
2022/05/13 08:50:32;;;;;;;4.45;1.00;;;16.10;96.90;;;;;;5092346;28;20376;-69
2022/05/13 08:53:19;;;;;;;4.67;1.17;;;16.10;95.80;;;;;;5092629;28;20437;-69
2022/05/13 08:55:51;;;;;;;7.25;1.27;;;16.00;96.10;;;;;;5092188;28;20028;-67
2022/05/13 08:58:19;;;;;;;2.08;0.90;;;15.50;96.30;;;;;;5090825;28;20081;-67
2022/05/13 09:00:51;;;;;;;8.68;1.92;;;15.20;97.30;;;;;;5088074;28;20020;-69
2022/05/13 09:03:31;;;;;;;3.47;0.90;;;15.10;97.50;;;;;;5092026;28;20035;-68
2022/05/13 09:06:11;;;;;;;2.05;1.20;;;15.30;97.00;;;;;;5091959;28;20476;-76
2022/05/13 09:08:37;;;;;;;2.63;0.93;;;15.40;97.20;;;;;;5092042;28;20035;-69
2022/05/13 09:11:20;;;;;;;5.55;1.08;;;15.40;97.20;;;;;;5092212;28;20071;-69
2022/05/13 09:13:57;;;;;;;2.28;1.00;;;15.40;97.10;;;;;;5092219;28;20476;-72
2022/05/13 09:16:58;;;;;;;4.30;1.30;;;15.10;97.00;;;;;;5091798;28;20024;-69
2022/05/13 09:19:39;;;;;;;7.03;1.23;;;14.90;97.40;;;;;;5064856;28;20334;-67
2022/05/13 09:22:09;;;;;;;3.85;0.82;;;15.20;97.40;;;;;;5077643;28;20040;-70
2022/05/13 09:24:36;;;;;;;2.95;1.05;;;15.30;97.30;;;;;;5083934;28;20089;-69
2022/05/13 09:27:02;;;;;;;3.65;1.10;;;15.30;97.90;;;;;;5091785;28;20032;-75
2022/05/13 09:29:39;;;;;;;3.92;1.10;;;15.40;97.30;;;;;;5092052;28;20112;-68
2022/05/13 09:32:07;;;;;;;9.15;1.38;;;15.60;98.40;;;;;;5092121;28;20024;-68
2022/05/13 09:34:46;;;;;;;5.15;1.70;;;15.60;98.80;;;;;;5091370;28;20036;-69
2022/05/13 09:37:21;;;;;;;7.15;1.50;;;15.50;98.10;;;;;;5091818;28;20028;-69
2022/05/13 09:40:11;;;;;;;2.67;0.98;;;15.40;98.80;;;;;;5091832;28;20081;-69
2022/05/13 09:42:41;;;;;;;5.68;1.08;;;15.30;98.50;;;;;;5091205;28;20043;-71
2022/05/13 09:45:25;;;;;;;6.25;1.30;;;15.10;98.80;;;;;;5091243;28;20028;-68
2022/05/13 09:48:19;;;;;;;6.65;1.30;;;14.90;99.30;;;;;;5090381;28;20472;-69
2022/05/13 09:50:55;;;;;;;3.40;1.13;;;14.90;99.20;;;;;;5087512;28;20029;-69
2022/05/13 09:53:21;;;;;;;3.55;1.67;;;14.90;99.40;;;;;;5090261;28;20032;-68
2022/05/13 09:55:49;;;;;;;3.70;1.02;;;15.10;99.90;;;;;;5091405;28;20054;-69
2022/05/13 09:58:19;;;;;;;;;;;15.10;99.50;;;;;;5091777;28;20035;-70
2022/05/13 10:00:48;;;;;;;5.38;1.35;;;15.30;99.20;;;;;;5091703;28;20295;-67
2022/05/13 10:03:22;;;;;;;6.65;1.13;;;15.10;99.30;;;;;;5091361;28;20073;-68
2022/05/13 10:06:02;;;;;;;2.67;1.17;;;15.50;98.90;;;;;;5091629;28;20023;-68
2022/05/13 10:08:28;;;;;;;9.55;1.90;;;15.80;98.80;;;;;;5091640;28;20020;-67
2022/05/13 10:14:05;;;;;;;3.60;0.90;;;16.20;98.20;;;;;;5079523;28;20040;-67
2022/05/13 10:16:49;;;;;;;5.80;1.70;;;16.10;98.00;;;;;;5093827;28;20024;-68
2022/05/13 10:19:19;;;;;;;4.10;1.38;;;16.00;98.20;;;;;;5095554;28;20093;-68
2022/05/13 10:22:19;;;;;;;7.90;2.42;;;16.00;98.40;;;;;;5095354;28;20051;-72
2022/05/13 10:25:10;;;;;;;2.83;0.70;;;15.80;98.10;;;;;;5088445;28;20036;-70
2022/05/13 10:27:57;;;;;;;1.88;0.73;;;15.60;98.50;;;;;;5095791;28;20028;-72
2022/05/13 10:30:50;;;;;;;5.80;1.02;;;15.80;98.00;;;;;;5095189;28;20109;-64
2022/05/13 10:33:23;;;;;;;5.47;0.90;;;15.70;97.90;;;;;;5094825;28;20391;-66
2022/05/13 10:36:04;;;;;;;8.20;1.80;;;15.80;97.70;;;;;;5093936;28;20048;-69
2022/05/13 10:38:45;;;;;;;3.70;1.38;;;15.80;96.90;;;;;;5095170;28;20089;-67
2022/05/13 10:41:45;;;;;;;4.25;1.30;;;15.80;97.50;;;;;;5094941;28;20032;-65
2022/05/13 10:44:39;;;;;;;8.40;1.17;;;15.90;97.00;;;;;;5062520;28;20083;-66
2022/05/13 10:47:14;;;;;;;5.45;1.20;;;16.00;95.60;;;;;;5074798;28;20118;-70
2022/05/13 10:49:43;;;;;;;5.93;1.20;;;16.20;95.90;;;;;;5074444;28;20025;-67
2022/05/13 10:52:29;;;;;;;2.28;0.73;;;16.30;95.50;;;;;;5074535;28;20034;-65
2022/05/13 10:55:06;;;;;;;6.95;1.15;;;16.50;95.10;;;;;;5074641;28;20082;-67
2022/05/13 10:57:59;;;;;;;2.80;0.70;;;16.50;94.70;;;;;;5074455;28;20105;-68
2022/05/13 11:00:49;;;;;;;6.32;1.33;;;16.90;94.60;;;;;;5074128;28;20043;-68
2022/05/13 11:03:26;;;;;;;8.05;1.38;;;17.50;93.70;;;;;;5081679;28;20091;-66
2022/05/13 11:06:04;;;;;;;3.15;1.08;;;17.10;93.80;;;;;;5094537;28;20039;-65
2022/05/13 11:08:59;;;;;;;9.00;1.67;;;17.10;94.40;;;;;;5094306;28;20073;-68
2022/05/13 11:11:38;;;;;;;3.15;1.08;;;17.50;94.10;;;;;;5093892;28;20035;-67
2022/05/13 11:14:18;;;;;;;8.93;1.00;;;17.60;93.20;;;;;;5093344;28;20543;-66
2022/05/13 11:17:05;;;;;;;4.10;1.40;;;17.20;93.90;;;;;;5094205;28;20020;-70
2022/05/13 11:19:40;;;;;;;5.40;0.70;;;17.10;93.90;;;;;;5093764;28;20119;-66
2022/05/13 11:22:24;;;;;;;6.93;1.45;;;17.10;93.60;;;;;;5073852;28;20060;-69
2022/05/13 11:28:14;;;;;;;11.07;1.40;;;17.60;93.80;;;;;;5093252;28;20035;-66
2022/05/13 11:30:43;;;;;;;7.90;1.60;;;17.80;93.80;;;;;;5093792;28;20376;-68
2022/05/13 11:33:43;;;;;;;7.10;0.85;;;18.20;91.80;;;;;;5093955;28;20112;-66
2022/05/13 11:36:30;;;;;;;6.28;1.20;;;18.40;91.90;;;;;;5087957;28;20506;-67
2022/05/13 11:38:56;;;;;;;;;;;18.70;91.30;;;;;;5094532;28;20064;-66
2022/05/13 11:41:23;;;;;;;5.25;0.80;;;18.50;91.80;;;;;;5093843;28;19954;-67
2022/05/13 11:44:00;;;;;;;2.47;0.63;;;18.50;91.30;;;;;;5093297;28;20035;-69
2022/05/13 11:46:31;;;;;;;6.63;0.80;;;18.40;90.90;;;;;;5093818;28;20483;-66
2022/05/13 11:49:05;;;;;;;5.40;1.20;;;18.60;91.30;;;;;;5092519;28;20016;-66
2022/05/13 11:51:34;;;;;;;4.25;1.15;;;18.50;90.40;;;;;;5093837;28;20029;-67
2022/05/13 11:53:59;;;;;;;9.13;1.75;;;17.90;91.60;;;;;;5093355;28;20032;-66
2022/05/13 11:56:31;;;;;;;4.40;1.02;;;17.90;91.20;;;;;;5093760;28;20476;-67
2022/05/13 11:59:11;;;;;;;5.78;1.15;;;18.40;90.30;;;;;;5092031;28;20078;-67
2022/05/13 12:01:46;;;;;;;7.78;1.13;;;18.50;90.50;;;;;;5093482;28;20028;-67
2022/05/13 12:04:11;;;;;;;1.67;1.00;;;18.90;90.60;;;;;;5093358;28;20024;-69
2022/05/13 12:06:52;;;;;;;4.97;1.27;;;18.90;89.10;;;;;;5091608;28;20024;-69
2022/05/13 12:09:39;;;;;;;4.35;1.15;;;18.80;89.30;;;;;;5093029;28;20066;-66
2022/05/13 12:12:19;;;;;;;9.30;2.30;;;18.80;90.40;;;;;;5093698;28;20365;-70
2022/05/13 12:15:10;;;;;;;7.25;0.85;;;18.40;90.50;;;;;;5092983;28;20077;-72
2022/05/13 12:18:14;;;;;;;5.80;0.75;;;18.20;90.90;;;;;;5092886;28;20022;-75
2022/05/13 12:21:14;;;;;;;5.43;1.38;;;18.30;90.70;;;;;;5092592;28;20040;-73
2022/05/13 12:24:14;;;;;;;7.75;1.08;;;18.20;90.20;;;;;;5092160;28;20097;-70
2022/05/13 12:26:52;;;;;;;2.25;0.60;;;18.20;91.40;;;;;;5092724;28;20493;-68
2022/05/13 12:29:24;;;;;;;7.70;1.13;;;18.50;92.10;;;;;;5093040;28;20041;-69
2022/05/13 12:31:53;;;;;;;6.28;1.23;;;18.70;90.20;;;;;;5091709;28;20508;-66
2022/05/13 12:37:37;;;;;;;6.53;1.63;;;19.00;87.70;;;;;;5092762;28;20419;-73
2022/05/13 12:40:03;;;;;;;6.20;0.90;;;18.80;90.10;;;;;;5091861;28;20433;-69
2022/05/13 12:42:44;;;;;;;4.43;1.00;;;19.20;89.00;;;;;;5092077;28;20476;-66
2022/05/13 12:45:20;;;;;;;3.33;1.00;;;19.30;88.40;;;;;;5092450;28;20027;-67
2022/05/13 12:48:04;;;;;;;4.85;0.60;;;19.70;87.30;;;;;;5092730;28;20107;-70
2022/05/13 12:50:38;;;;;;;2.78;0.60;;;19.90;85.10;;;;;;5090991;28;20472;-68
2022/05/13 12:53:29;;;;;;;9.82;1.48;;;19.80;85.10;;;;;;5091948;28;20457;-66
2022/05/13 12:55:59;;;;;;;5.50;0.90;;;19.70;84.20;;;;;;5092355;28;20111;-64
2022/05/13 12:58:28;;;;;;;2.65;0.43;;;20.10;83.40;;;;;;5092296;28;20059;-70
2022/05/13 13:00:54;;;;;;;5.05;1.17;;;19.90;82.20;;;;;;5092671;28;20020;-68
2022/05/13 13:03:22;;;;;;;4.32;0.70;;;19.00;82.90;;;;;;5091796;28;20036;-66
2022/05/13 13:06:06;;;;;;;6.15;0.95;;;18.90;84.50;;;;;;5092184;28;20079;-68
2022/05/13 13:08:35;;;;;;;3.90;1.77;;;18.70;85.80;;;;;;5092373;28;20492;-70
2022/05/13 13:11:23;;;;;;;5.63;0.90;;;18.90;86.80;;;;;;5092371;28;20016;-67
2022/05/13 13:14:05;;;;;;;4.03;0.80;;;18.60;87.90;;;;;;5091857;28;20028;-67
2022/05/13 13:16:41;;;;;;;3.38;0.93;;;18.60;86.30;;;;;;5092158;28;20024;-70
2022/05/13 13:19:13;;;;;;;2.10;0.88;;;18.30;87.70;;;;;;5092184;28;20038;-66
2022/05/13 13:21:41;;;;;;;5.72;0.95;;;18.20;87.00;;;;;;5091960;28;20119;-69
2022/05/13 13:24:14;;;;;;;3.53;0.85;;;17.70;89.00;;;;;;5091486;28;20039;-68
2022/05/13 13:26:42;;;;;;;6.22;1.15;;;17.80;89.90;;;;;;5092240;28;20496;-72
2022/05/13 13:29:08;;;;;;;4.70;1.00;;;17.60;90.50;;;;;;5091987;28;20028;-71
2022/05/13 13:31:41;;;;;;;11.02;1.00;;;17.70;90.80;;;;;;5091932;28;20023;-73
2022/05/13 13:34:37;;;;;;;2.58;0.75;;;17.50;91.10;;;;;;5090573;28;20429;-68